createdAt,value
2018-12-07T00:00:41.484Z,80.50
2018-12-07T00:03:10.739Z,80.50
2018-12-07T00:05:39.919Z,80.10
2018-12-07T00:08:09.125Z,81.60
2018-12-07T00:10:38.315Z,81.50
2018-12-07T00:13:07.557Z,81.70
2018-12-07T00:15:37.308Z,81.80
2018-12-07T00:18:06.496Z,82.90
2018-12-07T00:20:37.186Z,83.30
2018-12-07T00:23:06.668Z,83.20
2018-12-07T00:25:36.043Z,83.40
2018-12-07T00:28:05.237Z,83.40
2018-12-07T00:30:42.183Z,83.70
2018-12-07T00:33:11.527Z,84.80
2018-12-07T00:35:42.454Z,85.70
2018-12-07T00:38:11.853Z,86.30
2018-12-07T00:40:41.154Z,87.40
2018-12-07T00:43:10.762Z,87.10
2018-12-07T00:45:40.019Z,88.30
2018-12-07T00:48:09.241Z,88.40
2018-12-07T00:50:38.424Z,87.70
2018-12-07T00:53:07.650Z,87.90
2018-12-07T00:55:41.346Z,87.70
2018-12-07T01:00:08.100Z,86.60
2018-12-07T01:02:37.256Z,87.70
2018-12-07T01:05:07.431Z,87.60
2018-12-07T01:07:36.746Z,87.40
2018-12-07T01:10:07.239Z,87.30
2018-12-07T01:12:36.520Z,87.20
2018-12-07T01:15:05.877Z,88.30
2018-12-07T01:17:35.218Z,90.50
2018-12-07T01:20:04.948Z,90.40
2018-12-07T01:22:34.394Z,90.80
2018-12-07T01:25:03.646Z,90.70
2018-12-07T01:27:32.863Z,90.80
2018-12-07T01:30:02.148Z,91.10
2018-12-07T01:32:31.490Z,91.30
2018-12-07T01:35:00.709Z,91.30
2018-12-07T01:37:30.023Z,91.70
2018-12-07T01:39:59.231Z,93.20
2018-12-07T01:42:28.627Z,94.30
2018-12-07T01:44:57.935Z,94.60
2018-12-07T01:47:27.283Z,95.40
2018-12-07T01:49:56.529Z,96.60
2018-12-07T01:52:25.934Z,97.40
2018-12-07T01:54:55.578Z,98.20
2018-12-07T01:57:24.853Z,98.60
2018-12-07T01:59:54.366Z,98.30
2018-12-07T02:02:23.625Z,98.30
2018-12-07T02:04:54.077Z,98.40
2018-12-07T02:07:33.198Z,98.60
2018-12-07T02:10:02.531Z,99.00
2018-12-07T02:12:31.941Z,99.30
2018-12-07T02:15:01.377Z,99.60
2018-12-07T02:17:30.632Z,99.80
2018-12-07T02:19:59.950Z,99.90
2018-12-07T02:22:29.299Z,99.90
2018-12-07T02:24:59.728Z,99.90
2018-12-07T02:27:31.164Z,99.90
2018-12-07T02:30:00.384Z,99.90
2018-12-07T02:32:29.632Z,99.90
2018-12-07T02:34:58.985Z,99.90
2018-12-07T02:37:28.139Z,99.90
2018-12-07T02:39:57.308Z,99.90
2018-12-07T02:42:27.131Z,99.90
2018-12-07T02:44:56.344Z,99.90
2018-12-07T02:47:25.605Z,99.90
2018-12-07T02:49:54.960Z,99.90
2018-12-07T02:52:24.267Z,99.90
2018-12-07T02:54:53.439Z,99.90
2018-12-07T02:57:22.709Z,99.90
2018-12-07T02:59:51.966Z,99.90
2018-12-07T03:02:21.184Z,99.90
2018-12-07T03:04:50.493Z,99.90
2018-12-07T03:07:19.701Z,99.90
2018-12-07T03:09:48.902Z,99.90
2018-12-07T03:12:18.184Z,99.90
2018-12-07T03:14:47.458Z,99.90
2018-12-07T03:17:16.654Z,99.90
2018-12-07T03:19:46.262Z,99.90
2018-12-07T03:22:15.431Z,99.90
2018-12-07T03:24:44.658Z,99.90
2018-12-07T03:27:13.902Z,99.90
2018-12-07T03:29:43.063Z,99.90
2018-12-07T03:32:12.246Z,99.90
2018-12-07T03:34:41.470Z,99.90
2018-12-07T03:37:10.726Z,99.90
2018-12-07T03:39:39.913Z,99.90
2018-12-07T03:42:09.392Z,99.90
2018-12-07T03:44:38.610Z,99.90
2018-12-07T03:47:08.036Z,99.90
2018-12-07T03:49:37.248Z,99.90
2018-12-07T03:52:06.505Z,99.90
2018-12-07T03:54:35.673Z,99.90
2018-12-07T03:57:04.967Z,99.90
2018-12-07T03:59:34.178Z,99.90
2018-12-07T04:02:03.501Z,99.90
2018-12-07T04:04:32.848Z,99.90
2018-12-07T04:07:02.043Z,99.90
2018-12-07T04:09:31.273Z,99.90
2018-12-07T04:12:00.567Z,99.90
2018-12-07T04:14:29.797Z,99.90
2018-12-07T04:16:58.971Z,99.90
2018-12-07T04:19:28.324Z,99.90
2018-12-07T04:21:57.475Z,99.90
2018-12-07T04:24:26.706Z,99.90
2018-12-07T04:26:56.045Z,99.90
2018-12-07T04:29:25.250Z,99.90
2018-12-07T04:31:54.454Z,99.90
2018-12-07T04:34:23.878Z,99.90
2018-12-07T04:36:53.089Z,99.90
2018-12-07T04:39:22.289Z,99.90
2018-12-07T04:41:51.574Z,99.90
2018-12-07T04:44:20.780Z,99.90
2018-12-07T04:46:50.013Z,99.90
2018-12-07T04:49:19.343Z,99.90
2018-12-07T04:51:48.552Z,99.90
2018-12-07T04:54:17.750Z,99.90
2018-12-07T04:56:47.068Z,99.90
2018-12-07T04:59:16.296Z,99.90
2018-12-07T05:01:45.480Z,99.90
2018-12-07T05:04:14.777Z,99.90
2018-12-07T05:06:43.974Z,99.90
2018-12-07T05:09:13.198Z,99.90
2018-12-07T05:11:42.513Z,99.90
2018-12-07T05:14:11.661Z,99.90
2018-12-07T05:16:40.857Z,99.90
2018-12-07T05:19:10.143Z,99.90
2018-12-07T05:21:39.408Z,99.90
2018-12-07T05:24:08.654Z,99.90
2018-12-07T05:26:37.900Z,99.90
2018-12-07T05:29:07.054Z,99.90
2018-12-07T05:31:36.257Z,99.90
2018-12-07T05:34:05.566Z,99.90
2018-12-07T05:36:34.768Z,99.90
2018-12-07T05:39:05.131Z,99.90
2018-12-07T05:41:34.397Z,99.90
2018-12-07T05:44:03.589Z,99.90
2018-12-07T05:46:33.214Z,99.90
2018-12-07T05:49:02.514Z,99.90
2018-12-07T05:51:31.745Z,99.90
2018-12-07T05:54:00.920Z,99.90
2018-12-07T05:56:30.257Z,99.90
2018-12-07T05:58:59.453Z,99.90
2018-12-07T06:01:28.618Z,99.90
2018-12-07T06:03:57.945Z,99.90
2018-12-07T06:06:27.142Z,99.90
2018-12-07T06:08:56.298Z,99.90
2018-12-07T06:11:25.566Z,99.90
2018-12-07T06:13:54.698Z,99.90
2018-12-07T06:16:23.946Z,99.90
2018-12-07T06:18:53.247Z,99.90
2018-12-07T06:21:22.425Z,99.90
2018-12-07T06:23:51.593Z,99.90
2018-12-07T06:26:20.865Z,99.90
2018-12-07T06:28:50.014Z,99.90
2018-12-07T06:31:19.168Z,99.90
2018-12-07T06:33:48.414Z,99.90
2018-12-07T06:36:17.566Z,99.90
2018-12-07T06:38:46.777Z,99.90
2018-12-07T06:41:16.133Z,99.90
2018-12-07T06:43:46.244Z,99.90
2018-12-07T06:46:15.382Z,99.90
2018-12-07T06:48:44.688Z,99.90
2018-12-07T06:51:13.838Z,99.90
2018-12-07T06:53:42.992Z,99.90
2018-12-07T06:56:13.310Z,99.90
2018-12-07T06:58:42.459Z,99.90
2018-12-07T07:01:12.230Z,99.90
2018-12-07T07:03:41.434Z,99.90
2018-12-07T07:06:10.577Z,99.90
2018-12-07T07:08:39.918Z,99.90
2018-12-07T07:11:09.084Z,99.90
2018-12-07T07:13:38.285Z,99.90
2018-12-07T07:16:07.548Z,99.90
2018-12-07T07:18:36.735Z,99.90
2018-12-07T07:21:05.935Z,99.90
2018-12-07T07:23:35.215Z,99.90
2018-12-07T07:26:04.363Z,99.90
2018-12-07T07:28:33.512Z,99.90
2018-12-07T07:31:02.811Z,99.90
2018-12-07T07:33:31.987Z,99.90
2018-12-07T07:36:01.151Z,99.90
2018-12-07T07:38:30.401Z,99.90
2018-12-07T07:40:59.565Z,99.90
2018-12-07T07:43:28.786Z,99.90
2018-12-07T07:45:58.072Z,99.90
2018-12-07T07:48:27.302Z,99.90
2018-12-07T07:50:56.506Z,99.90
2018-12-07T07:53:25.956Z,99.90
2018-12-07T07:55:55.114Z,99.90
2018-12-07T07:58:24.372Z,99.90
2018-12-07T08:00:53.622Z,99.90
2018-12-07T08:03:22.813Z,99.90
2018-12-07T08:05:52.015Z,99.90
2018-12-07T08:08:21.215Z,99.90
2018-12-07T08:10:50.445Z,99.90
2018-12-07T08:13:19.652Z,99.90
2018-12-07T08:15:48.963Z,99.90
2018-12-07T08:18:18.287Z,99.90
2018-12-07T08:20:47.492Z,99.90
2018-12-07T08:23:16.698Z,99.90
2018-12-07T08:25:45.881Z,99.90
2018-12-07T08:28:15.046Z,99.90
2018-12-07T08:30:44.285Z,99.90
2018-12-07T08:33:13.457Z,99.90
2018-12-07T08:35:42.944Z,99.90
2018-12-07T08:38:12.250Z,99.90
2018-12-07T08:40:41.437Z,99.90
2018-12-07T08:43:10.685Z,99.90
2018-12-07T08:45:40.129Z,99.90
2018-12-07T08:48:09.284Z,99.90
2018-12-07T08:50:38.542Z,99.90
2018-12-07T08:53:07.830Z,99.90
2018-12-07T08:55:37.145Z,99.90
2018-12-07T08:58:06.369Z,99.90
2018-12-07T09:00:35.748Z,99.90
2018-12-07T09:03:05.157Z,99.90
2018-12-07T09:05:34.323Z,99.90
2018-12-07T09:08:03.558Z,99.90
2018-12-07T09:10:32.767Z,99.90
2018-12-07T09:13:01.957Z,99.90
2018-12-07T09:15:31.279Z,99.90
2018-12-07T09:18:00.470Z,99.90
2018-12-07T09:20:29.640Z,99.90
2018-12-07T09:22:58.987Z,99.90
2018-12-07T09:25:28.145Z,99.90
2018-12-07T09:27:57.306Z,99.90
2018-12-07T09:30:26.526Z,99.90
2018-12-07T09:32:55.686Z,99.90
2018-12-07T09:35:24.889Z,99.90
2018-12-07T09:37:54.098Z,99.90
2018-12-07T09:40:23.293Z,99.90
2018-12-07T09:42:53.944Z,99.90
2018-12-07T09:45:23.295Z,99.90
2018-12-07T09:47:52.514Z,99.90
2018-12-07T09:50:21.716Z,99.90
2018-12-07T09:52:50.957Z,99.90
2018-12-07T09:55:20.163Z,99.90
2018-12-07T09:57:49.343Z,99.90
2018-12-07T10:00:18.563Z,99.90
2018-12-07T10:02:47.805Z,99.90
2018-12-07T10:05:17.077Z,99.90
2018-12-07T10:07:46.407Z,99.90
2018-12-07T10:10:15.608Z,99.90
2018-12-07T10:12:44.791Z,99.90
2018-12-07T10:15:14.097Z,99.90
2018-12-07T10:17:43.300Z,99.90
2018-12-07T10:20:12.505Z,99.90
2018-12-07T10:22:41.778Z,99.90
2018-12-07T10:25:10.921Z,99.90
2018-12-07T10:27:40.132Z,99.90
2018-12-07T10:30:09.448Z,99.90
2018-12-07T10:32:38.634Z,99.90
2018-12-07T10:35:07.799Z,99.90
2018-12-07T10:37:37.091Z,99.90
2018-12-07T10:40:08.547Z,99.90
2018-12-07T10:42:37.756Z,99.90
2018-12-07T10:45:08.172Z,99.90
2018-12-07T10:47:37.349Z,99.90
2018-12-07T10:50:06.793Z,99.90
2018-12-07T10:52:36.142Z,99.90
2018-12-07T10:55:06.048Z,99.90
2018-12-07T10:57:35.237Z,99.90
2018-12-07T11:00:05.749Z,99.90
2018-12-07T11:02:40.250Z,99.90
2018-12-07T11:05:14.949Z,99.90
2018-12-07T11:07:49.481Z,99.90
2018-12-07T11:10:24.049Z,99.90
2018-12-07T11:12:58.661Z,99.90
2018-12-07T11:15:33.246Z,99.90
2018-12-07T11:18:07.682Z,99.90
2018-12-07T11:20:42.213Z,99.90
2018-12-07T11:23:16.794Z,99.90
2018-12-07T11:25:51.459Z,99.90
2018-12-07T11:28:25.802Z,99.90
2018-12-07T11:31:00.522Z,99.90
2018-12-07T11:33:36.486Z,99.90
2018-12-07T11:36:08.196Z,99.90
2018-12-07T11:38:37.091Z,99.90
2018-12-07T11:41:06.536Z,99.90
2018-12-07T11:43:35.760Z,99.90
2018-12-07T11:46:04.915Z,99.90
2018-12-07T11:48:34.393Z,99.90
2018-12-07T11:51:03.649Z,99.90
2018-12-07T11:53:32.802Z,99.90
2018-12-07T11:56:02.079Z,99.90
2018-12-07T11:58:31.249Z,99.90
2018-12-07T12:01:00.474Z,99.90
2018-12-07T12:03:29.844Z,99.90
2018-12-07T12:05:59.070Z,99.90
2018-12-07T12:08:28.589Z,99.90
2018-12-07T12:10:57.905Z,99.90
2018-12-07T12:13:27.100Z,99.90
2018-12-07T12:15:56.306Z,99.90
2018-12-07T12:18:25.651Z,99.90
2018-12-07T12:20:54.874Z,99.90
2018-12-07T12:23:24.090Z,99.90
2018-12-07T12:25:53.483Z,99.90
2018-12-07T12:28:22.692Z,99.90
2018-12-07T12:30:51.885Z,99.90
2018-12-07T12:33:21.161Z,99.90
2018-12-07T12:35:50.356Z,99.90
2018-12-07T12:38:19.516Z,99.90
2018-12-07T12:40:48.747Z,99.90
2018-12-07T12:43:17.996Z,99.90
2018-12-07T12:45:47.174Z,99.90
2018-12-07T12:48:16.598Z,99.90
2018-12-07T12:50:45.781Z,99.90
2018-12-07T12:53:14.938Z,99.90
2018-12-07T12:55:44.225Z,99.90
2018-12-07T12:58:13.547Z,99.90
2018-12-07T13:00:42.723Z,99.90
2018-12-07T13:03:12.889Z,99.90
2018-12-07T13:05:43.678Z,99.90
2018-12-07T13:08:13.195Z,99.90
2018-12-07T13:10:42.583Z,99.90
2018-12-07T13:13:11.830Z,99.90
2018-12-07T13:15:41.046Z,99.90
2018-12-07T13:18:10.365Z,99.90
2018-12-07T13:20:39.593Z,99.90
2018-12-07T13:23:08.805Z,99.90
2018-12-07T13:25:38.126Z,99.90
2018-12-07T13:28:07.354Z,99.90
2018-12-07T13:30:36.519Z,99.90
2018-12-07T13:33:05.847Z,99.90
2018-12-07T13:35:35.036Z,99.90
2018-12-07T13:38:04.354Z,99.90
2018-12-07T13:40:33.803Z,99.90
2018-12-07T13:43:03.067Z,99.90
2018-12-07T13:45:32.929Z,99.90
2018-12-07T13:48:03.231Z,99.90
2018-12-07T13:50:37.961Z,99.90
2018-12-07T13:53:07.413Z,99.90
2018-12-07T13:55:37.391Z,99.90
2018-12-07T13:58:06.617Z,99.90
2018-12-07T14:00:36.233Z,99.90
2018-12-07T14:03:05.523Z,99.90
2018-12-07T14:05:34.877Z,99.90
2018-12-07T14:08:04.397Z,99.90
2018-12-07T14:10:34.815Z,99.90
2018-12-07T14:13:04.108Z,99.90
2018-12-07T14:15:33.550Z,99.90
2018-12-07T14:18:03.064Z,99.90
2018-12-07T14:20:32.424Z,99.90
2018-12-07T14:23:02.056Z,99.90
2018-12-07T14:25:31.402Z,99.90
2018-12-07T14:28:00.734Z,99.90
2018-12-07T14:30:29.999Z,99.90
2018-12-07T14:32:59.539Z,99.90
2018-12-07T14:35:28.847Z,99.90
2018-12-07T14:37:58.224Z,99.90
2018-12-07T14:40:27.588Z,99.90
2018-12-07T14:42:56.937Z,99.90
2018-12-07T14:45:27.741Z,99.90
2018-12-07T14:47:57.082Z,99.90
2018-12-07T14:50:26.486Z,99.90
2018-12-07T14:52:57.622Z,99.90
2018-12-07T14:55:27.106Z,99.90
2018-12-07T14:57:56.435Z,98.70
2018-12-07T15:00:26.022Z,98.00
2018-12-07T15:02:55.617Z,97.80
2018-12-07T15:05:28.543Z,96.20
2018-12-07T15:07:57.894Z,95.50
2018-12-07T15:10:28.452Z,93.90
2018-12-07T15:13:01.604Z,93.10
2018-12-07T15:15:30.953Z,91.80
2018-12-07T15:18:00.175Z,91.30
2018-12-07T15:20:30.188Z,90.80
2018-12-07T15:23:00.073Z,89.40
2018-12-07T15:25:29.858Z,87.50
2018-12-07T15:27:59.344Z,86.50
2018-12-07T15:30:28.922Z,84.70
2018-12-07T15:32:58.378Z,82.50
2018-12-07T15:35:27.902Z,80.90
2018-12-07T15:37:57.440Z,78.60
2018-12-07T15:40:26.666Z,79.00
2018-12-07T15:42:55.962Z,78.30
2018-12-07T15:45:25.502Z,78.50
2018-12-07T15:47:54.782Z,77.40
2018-12-07T15:50:25.311Z,76.10
2018-12-07T15:52:55.167Z,75.20
2018-12-07T15:55:24.482Z,75.10
2018-12-07T15:57:54.193Z,74.30
2018-12-07T16:00:23.777Z,72.10
2018-12-07T16:02:54.086Z,69.30
2018-12-07T16:05:23.390Z,69.20
2018-12-07T16:07:52.780Z,68.80
2018-12-07T16:10:22.004Z,67.70
2018-12-07T16:12:51.400Z,67.00
2018-12-07T16:15:20.898Z,68.00
2018-12-07T16:17:50.217Z,66.60
2018-12-07T16:20:19.607Z,65.80
2018-12-07T16:22:48.956Z,67.50
2018-12-07T16:25:19.082Z,66.60
2018-12-07T16:27:49.957Z,65.40
2018-12-07T16:30:19.631Z,65.00
2018-12-07T16:32:48.919Z,66.00
2018-12-07T16:35:18.191Z,66.80
2018-12-07T16:37:47.751Z,66.00
2018-12-07T16:40:17.040Z,64.30
2018-12-07T16:42:46.341Z,63.60
2018-12-07T16:45:15.761Z,62.80
2018-12-07T16:47:44.999Z,65.90
2018-12-07T16:50:14.297Z,64.70
2018-12-07T16:52:43.678Z,65.70
2018-12-07T16:55:13.286Z,64.40
2018-12-07T16:57:42.770Z,63.30
2018-12-07T17:00:12.250Z,62.30
2018-12-07T17:02:41.608Z,60.50
2018-12-07T17:05:11.000Z,59.80
2018-12-07T17:07:40.494Z,59.70
2018-12-07T17:10:10.825Z,59.50
2018-12-07T17:12:40.146Z,58.90
2018-12-07T17:15:10.404Z,58.00
2018-12-07T17:17:39.821Z,60.00
2018-12-07T17:20:09.513Z,59.70
2018-12-07T17:22:39.788Z,58.90
2018-12-07T17:25:10.135Z,59.90
2018-12-07T17:27:39.500Z,58.50
2018-12-07T17:30:09.025Z,58.40
2018-12-07T17:32:38.428Z,57.80
2018-12-07T17:35:09.524Z,56.60
2018-12-07T17:37:39.019Z,55.90
2018-12-07T17:40:08.569Z,56.40
2018-12-07T17:42:38.065Z,55.20
2018-12-07T17:45:07.890Z,55.40
2018-12-07T17:47:37.249Z,55.10
2018-12-07T17:50:08.327Z,53.90
2018-12-07T17:52:43.010Z,54.90
2018-12-07T17:55:12.519Z,54.10
2018-12-07T17:57:41.773Z,54.30
2018-12-07T18:00:13.106Z,53.30
2018-12-07T18:02:42.338Z,54.70
2018-12-07T18:05:11.605Z,53.90
2018-12-07T18:07:41.195Z,52.70
2018-12-07T18:10:10.834Z,51.80
2018-12-07T18:12:40.192Z,52.70
2018-12-07T18:15:10.890Z,52.80
2018-12-07T18:17:40.497Z,52.90
2018-12-07T18:20:09.778Z,52.60
2018-12-07T18:22:39.345Z,55.10
2018-12-07T18:25:08.885Z,56.10
2018-12-07T18:27:38.398Z,54.30
2018-12-07T18:30:08.877Z,54.10
2018-12-07T18:32:38.781Z,55.40
2018-12-07T18:35:08.605Z,54.70
2018-12-07T18:37:38.060Z,53.00
2018-12-07T18:40:07.966Z,53.80
2018-12-07T18:42:37.305Z,53.40
2018-12-07T18:45:06.984Z,54.30
2018-12-07T18:47:36.403Z,54.70
2018-12-07T18:50:07.335Z,54.50
2018-12-07T18:52:36.540Z,54.80
2018-12-07T18:55:08.497Z,55.30
2018-12-07T18:57:39.384Z,56.40
2018-12-07T19:00:09.474Z,56.10
2018-12-07T19:02:38.876Z,55.40
2018-12-07T19:05:09.009Z,56.00
2018-12-07T19:07:38.401Z,57.30
2018-12-07T19:10:08.164Z,56.20
2018-12-07T19:12:37.694Z,54.90
2018-12-07T19:15:07.299Z,56.20
2018-12-07T19:17:36.747Z,56.40
2018-12-07T19:20:07.389Z,56.70
2018-12-07T19:22:36.633Z,55.60
2018-12-07T19:25:06.697Z,55.20
2018-12-07T19:27:36.221Z,54.60
2018-12-07T19:30:14.607Z,54.70
2018-12-07T19:32:40.384Z,54.20
2018-12-07T19:35:10.026Z,54.10
2018-12-07T19:37:39.644Z,55.10
2018-12-07T19:40:08.886Z,54.80
2018-12-07T19:42:38.196Z,54.50
2018-12-07T19:45:09.222Z,54.70
2018-12-07T19:47:38.871Z,54.10
2018-12-07T19:50:08.630Z,54.50
2018-12-07T19:52:38.142Z,53.20
2018-12-07T19:55:08.276Z,53.70
2018-12-07T19:57:38.364Z,54.30
2018-12-07T20:00:10.233Z,54.20
2018-12-07T20:02:39.526Z,53.00
2018-12-07T20:05:09.049Z,54.80
2018-12-07T20:07:38.662Z,54.50
2018-12-07T20:10:08.047Z,53.80
2018-12-07T20:12:37.679Z,53.40
2018-12-07T20:15:08.638Z,54.40
2018-12-07T20:17:39.642Z,55.20
2018-12-07T20:20:09.380Z,57.50
2018-12-07T20:22:38.854Z,58.00
2018-12-07T20:25:08.387Z,57.50
2018-12-07T20:27:38.059Z,56.00
2018-12-07T20:30:08.279Z,55.80
2018-12-07T20:32:37.561Z,55.20
2018-12-07T20:35:06.909Z,54.10
2018-12-07T20:37:36.187Z,54.40
2018-12-07T20:40:05.587Z,54.60
2018-12-07T20:42:35.197Z,55.60
2018-12-07T20:45:04.625Z,57.50
2018-12-07T20:47:33.908Z,58.30
2018-12-07T20:50:03.459Z,58.10
2018-12-07T20:52:32.805Z,58.10
2018-12-07T20:55:03.081Z,57.70
2018-12-07T20:57:32.868Z,56.90
2018-12-07T21:00:02.938Z,57.90
2018-12-07T21:02:32.440Z,57.50
2018-12-07T21:05:01.894Z,57.40
2018-12-07T21:07:51.959Z,58.60
2018-12-07T21:13:42.038Z,57.10
2018-12-07T21:16:32.128Z,56.90
2018-12-07T21:19:01.692Z,57.30
2018-12-07T21:21:31.171Z,58.20
2018-12-07T21:24:01.428Z,58.20
2018-12-07T21:26:30.676Z,58.30
2018-12-07T21:29:00.269Z,58.80
2018-12-07T21:31:29.599Z,57.40
2018-12-07T21:34:03.790Z,58.90
2018-12-07T21:36:37.895Z,58.50
2018-12-07T21:39:15.213Z,59.80
2018-12-07T21:41:44.782Z,60.80
2018-12-07T21:44:13.985Z,62.00
2018-12-07T21:46:43.375Z,62.00
2018-12-07T21:49:13.455Z,62.00
2018-12-07T21:52:02.622Z,63.30
2018-12-07T21:54:31.998Z,64.00
2018-12-07T21:57:01.231Z,65.30
2018-12-07T21:59:30.464Z,65.50
2018-12-07T22:01:59.751Z,65.30
2018-12-07T22:04:29.461Z,65.20
2018-12-07T22:06:59.031Z,66.20
2018-12-07T22:09:28.384Z,66.90
2018-12-07T22:11:57.596Z,67.00
2018-12-07T22:14:27.236Z,68.20
2018-12-07T22:16:56.585Z,69.70
2018-12-07T22:19:25.820Z,69.80
2018-12-07T22:21:55.415Z,69.40
2018-12-07T22:24:25.068Z,69.10
2018-12-07T22:26:54.298Z,69.60
2018-12-07T22:29:23.591Z,69.30
2018-12-07T22:31:53.129Z,69.30
2018-12-07T22:34:22.886Z,69.80
2018-12-07T22:36:52.384Z,70.40
2018-12-07T22:39:21.655Z,70.40
2018-12-07T22:41:51.109Z,70.70
2018-12-07T22:44:20.669Z,71.00
2018-12-07T22:46:50.208Z,72.20
2018-12-07T22:49:19.412Z,73.20
2018-12-07T22:51:48.694Z,73.30
2018-12-07T22:54:17.898Z,73.60
2018-12-07T22:56:47.228Z,73.20
2018-12-07T22:59:17.051Z,72.80
2018-12-07T23:01:46.560Z,73.30
2018-12-07T23:04:15.913Z,73.20
2018-12-07T23:06:45.994Z,73.70
2018-12-07T23:09:15.235Z,74.00
2018-12-07T23:11:44.413Z,74.40
2018-12-07T23:14:13.689Z,74.90
2018-12-07T23:16:46.366Z,74.70
2018-12-07T23:19:15.754Z,74.60
2018-12-07T23:21:45.079Z,74.70
2018-12-07T23:24:14.400Z,75.20
2018-12-07T23:26:45.241Z,75.70
2018-12-07T23:29:21.756Z,76.20
2018-12-07T23:31:51.070Z,75.60
2018-12-07T23:34:20.401Z,75.60
2018-12-07T23:36:50.692Z,75.70
2018-12-07T23:39:21.068Z,76.10
2018-12-07T23:41:51.598Z,76.50
2018-12-07T23:44:22.080Z,76.50
2018-12-07T23:46:51.383Z,77.10
2018-12-07T23:49:20.589Z,77.80
2018-12-07T23:51:52.093Z,78.00
2018-12-07T23:54:21.804Z,78.30
2018-12-07T23:56:51.019Z,78.60
2018-12-07T23:59:20.703Z,78.90
